sensor_id;sensor_type;location;lat;lon;timestamp;P1;durP1;ratioP1;P2;durP2;ratioP2
43988;SDS011;54163;51.386;7.178;2022-07-17T00:00:48;532.07;;;97.63;;
43988;SDS011;54163;51.386;7.178;2022-07-17T00:03:16;527.23;;;93.57;;
43988;SDS011;54163;51.386;7.178;2022-07-17T00:05:44;525.17;;;92.93;;
43988;SDS011;54163;51.386;7.178;2022-07-17T00:08:12;524.17;;;92.27;;
43988;SDS011;54163;51.386;7.178;2022-07-17T00:10:40;526.30;;;93.40;;
43988;SDS011;54163;51.386;7.178;2022-07-17T00:13:08;604.43;;;109.67;;
43988;SDS011;54163;51.386;7.178;2022-07-17T00:15:36;602.63;;;108.80;;
43988;SDS011;54163;51.386;7.178;2022-07-17T00:18:03;614.00;;;118.60;;
43988;SDS011;54163;51.386;7.178;2022-07-17T00:20:32;630.67;;;115.07;;
43988;SDS011;54163;51.386;7.178;2022-07-17T00:23:01;525.40;;;94.47;;
43988;SDS011;54163;51.386;7.178;2022-07-17T00:25:28;529.50;;;97.30;;
43988;SDS011;54163;51.386;7.178;2022-07-17T00:27:57;520.23;;;93.10;;
43988;SDS011;54163;51.386;7.178;2022-07-17T00:30:25;528.97;;;99.60;;
43988;SDS011;54163;51.386;7.178;2022-07-17T00:32:52;524.33;;;93.73;;
43988;SDS011;54163;51.386;7.178;2022-07-17T00:35:19;521.50;;;92.77;;
43988;SDS011;54163;51.386;7.178;2022-07-17T00:37:46;564.50;;;103.50;;
43988;SDS011;54163;51.386;7.178;2022-07-17T00:40:17;609.53;;;113.93;;
43988;SDS011;54163;51.386;7.178;2022-07-17T00:42:45;519.13;;;93.00;;
43988;SDS011;54163;51.386;7.178;2022-07-17T00:45:13;595.67;;;109.00;;
43988;SDS011;54163;51.386;7.178;2022-07-17T00:47:48;515.73;;;90.60;;
43988;SDS011;54163;51.386;7.178;2022-07-17T00:50:19;582.67;;;102.87;;
43988;SDS011;54163;51.386;7.178;2022-07-17T00:52:47;516.33;;;91.37;;
43988;SDS011;54163;51.386;7.178;2022-07-17T00:55:15;521.63;;;93.97;;
43988;SDS011;54163;51.386;7.178;2022-07-17T00:57:43;589.27;;;106.33;;
43988;SDS011;54163;51.386;7.178;2022-07-17T01:00:12;596.70;;;110.07;;
43988;SDS011;54163;51.386;7.178;2022-07-17T01:02:40;520.10;;;90.33;;
43988;SDS011;54163;51.386;7.178;2022-07-17T01:05:07;599.87;;;110.13;;
43988;SDS011;54163;51.386;7.178;2022-07-17T01:07:34;515.40;;;91.37;;
43988;SDS011;54163;51.386;7.178;2022-07-17T01:10:01;508.90;;;89.27;;
43988;SDS011;54163;51.386;7.178;2022-07-17T01:12:30;614.47;;;109.97;;
43988;SDS011;54163;51.386;7.178;2022-07-17T01:14:59;593.67;;;107.13;;
43988;SDS011;54163;51.386;7.178;2022-07-17T01:17:27;594.17;;;112.87;;
43988;SDS011;54163;51.386;7.178;2022-07-17T01:19:54;508.37;;;88.03;;
43988;SDS011;54163;51.386;7.178;2022-07-17T01:22:22;597.43;;;108.63;;
43988;SDS011;54163;51.386;7.178;2022-07-17T01:24:50;512.60;;;91.33;;
43988;SDS011;54163;51.386;7.178;2022-07-17T01:27:18;505.67;;;89.63;;
43988;SDS011;54163;51.386;7.178;2022-07-17T01:29:45;585.63;;;107.80;;
43988;SDS011;54163;51.386;7.178;2022-07-17T01:32:11;512.33;;;91.33;;
43988;SDS011;54163;51.386;7.178;2022-07-17T01:34:39;474.97;;;84.10;;
43988;SDS011;54163;51.386;7.178;2022-07-17T01:37:06;591.63;;;111.63;;
43988;SDS011;54163;51.386;7.178;2022-07-17T01:39:34;504.93;;;86.97;;
43988;SDS011;54163;51.386;7.178;2022-07-17T01:42:20;491.90;;;85.27;;
43988;SDS011;54163;51.386;7.178;2022-07-17T01:44:48;499.73;;;86.13;;
43988;SDS011;54163;51.386;7.178;2022-07-17T01:47:16;574.10;;;103.03;;
43988;SDS011;54163;51.386;7.178;2022-07-17T01:49:44;496.60;;;84.90;;
43988;SDS011;54163;51.386;7.178;2022-07-17T01:52:12;507.37;;;90.87;;
43988;SDS011;54163;51.386;7.178;2022-07-17T01:54:40;578.67;;;108.23;;
43988;SDS011;54163;51.386;7.178;2022-07-17T01:57:08;587.23;;;112.83;;
43988;SDS011;54163;51.386;7.178;2022-07-17T01:59:37;505.93;;;88.60;;
43988;SDS011;54163;51.386;7.178;2022-07-17T02:02:04;587.67;;;102.33;;
43988;SDS011;54163;51.386;7.178;2022-07-17T02:04:33;509.30;;;93.97;;
43988;SDS011;54163;51.386;7.178;2022-07-17T02:07:01;566.10;;;101.40;;
43988;SDS011;54163;51.386;7.178;2022-07-17T02:09:28;579.47;;;104.80;;
43988;SDS011;54163;51.386;7.178;2022-07-17T02:11:56;568.37;;;103.63;;
43988;SDS011;54163;51.386;7.178;2022-07-17T02:14:24;494.30;;;86.03;;
43988;SDS011;54163;51.386;7.178;2022-07-17T02:16:51;573.10;;;101.20;;
43988;SDS011;54163;51.386;7.178;2022-07-17T02:19:18;498.63;;;84.77;;
43988;SDS011;54163;51.386;7.178;2022-07-17T02:21:45;498.57;;;85.40;;
43988;SDS011;54163;51.386;7.178;2022-07-17T02:24:12;567.07;;;101.73;;
43988;SDS011;54163;51.386;7.178;2022-07-17T02:26:40;576.20;;;106.03;;
43988;SDS011;54163;51.386;7.178;2022-07-17T02:29:08;499.43;;;86.87;;
43988;SDS011;54163;51.386;7.178;2022-07-17T02:31:35;501.40;;;86.30;;
43988;SDS011;54163;51.386;7.178;2022-07-17T02:34:02;499.27;;;85.60;;
43988;SDS011;54163;51.386;7.178;2022-07-17T02:36:29;572.50;;;105.77;;
43988;SDS011;54163;51.386;7.178;2022-07-17T02:38:57;488.60;;;84.37;;
43988;SDS011;54163;51.386;7.178;2022-07-17T02:41:24;500.33;;;89.17;;
43988;SDS011;54163;51.386;7.178;2022-07-17T02:43:51;497.40;;;85.57;;
43988;SDS011;54163;51.386;7.178;2022-07-17T02:46:19;493.50;;;85.30;;
43988;SDS011;54163;51.386;7.178;2022-07-17T02:48:46;564.90;;;99.73;;
43988;SDS011;54163;51.386;7.178;2022-07-17T02:51:14;562.63;;;99.43;;
43988;SDS011;54163;51.386;7.178;2022-07-17T02:53:41;565.23;;;99.80;;
43988;SDS011;54163;51.386;7.178;2022-07-17T02:56:08;532.23;;;93.60;;
43988;SDS011;54163;51.386;7.178;2022-07-17T02:58:35;491.97;;;83.67;;
43988;SDS011;54163;51.386;7.178;2022-07-17T03:01:02;490.33;;;83.73;;
43988;SDS011;54163;51.386;7.178;2022-07-17T03:03:31;511.63;;;88.03;;
43988;SDS011;54163;51.386;7.178;2022-07-17T03:05:57;497.00;;;87.33;;
43988;SDS011;54163;51.386;7.178;2022-07-17T03:08:24;562.03;;;102.20;;
43988;SDS011;54163;51.386;7.178;2022-07-17T03:10:51;558.97;;;101.77;;
43988;SDS011;54163;51.386;7.178;2022-07-17T03:13:18;492.67;;;85.57;;
43988;SDS011;54163;51.386;7.178;2022-07-17T03:15:45;483.93;;;82.17;;
43988;SDS011;54163;51.386;7.178;2022-07-17T03:18:12;494.87;;;87.00;;
43988;SDS011;54163;51.386;7.178;2022-07-17T03:20:40;557.70;;;98.47;;
43988;SDS011;54163;51.386;7.178;2022-07-17T03:23:07;492.87;;;85.63;;
43988;SDS011;54163;51.386;7.178;2022-07-17T03:25:34;483.07;;;81.17;;
43988;SDS011;54163;51.386;7.178;2022-07-17T03:28:01;490.17;;;87.97;;
43988;SDS011;54163;51.386;7.178;2022-07-17T03:30:29;560.93;;;99.03;;
43988;SDS011;54163;51.386;7.178;2022-07-17T03:32:56;491.37;;;85.20;;
43988;SDS011;54163;51.386;7.178;2022-07-17T03:35:23;487.30;;;84.07;;
43988;SDS011;54163;51.386;7.178;2022-07-17T03:37:51;493.10;;;88.13;;
43988;SDS011;54163;51.386;7.178;2022-07-17T03:40:18;485.93;;;85.97;;
43988;SDS011;54163;51.386;7.178;2022-07-17T03:42:45;550.80;;;96.23;;
43988;SDS011;54163;51.386;7.178;2022-07-17T03:45:16;484.47;;;81.80;;
43988;SDS011;54163;51.386;7.178;2022-07-17T03:47:43;483.10;;;82.83;;
43988;SDS011;54163;51.386;7.178;2022-07-17T03:50:10;487.10;;;84.87;;
43988;SDS011;54163;51.386;7.178;2022-07-17T03:52:37;484.80;;;82.40;;
43988;SDS011;54163;51.386;7.178;2022-07-17T03:55:06;480.13;;;81.43;;
43988;SDS011;54163;51.386;7.178;2022-07-17T03:57:34;548.97;;;98.10;;
43988;SDS011;54163;51.386;7.178;2022-07-17T04:00:01;483.93;;;83.97;;
43988;SDS011;54163;51.386;7.178;2022-07-17T04:02:37;541.27;;;96.80;;
43988;SDS011;54163;51.386;7.178;2022-07-17T04:05:04;554.53;;;104.83;;
43988;SDS011;54163;51.386;7.178;2022-07-17T04:07:35;484.50;;;83.53;;
43988;SDS011;54163;51.386;7.178;2022-07-17T04:10:03;545.60;;;99.97;;
43988;SDS011;54163;51.386;7.178;2022-07-17T04:12:32;515.17;;;91.23;;
43988;SDS011;54163;51.386;7.178;2022-07-17T04:14:59;480.17;;;82.93;;
43988;SDS011;54163;51.386;7.178;2022-07-17T04:17:26;545.60;;;98.03;;
43988;SDS011;54163;51.386;7.178;2022-07-17T04:19:53;483.77;;;86.57;;
43988;SDS011;54163;51.386;7.178;2022-07-17T04:22:20;477.53;;;81.87;;
43988;SDS011;54163;51.386;7.178;2022-07-17T04:24:47;480.00;;;83.83;;
43988;SDS011;54163;51.386;7.178;2022-07-17T04:27:14;470.07;;;83.90;;
43988;SDS011;54163;51.386;7.178;2022-07-17T04:29:43;482.37;;;83.67;;
43988;SDS011;54163;51.386;7.178;2022-07-17T04:32:10;483.80;;;85.80;;
43988;SDS011;54163;51.386;7.178;2022-07-17T04:34:37;482.30;;;83.03;;
43988;SDS011;54163;51.386;7.178;2022-07-17T04:37:04;481.27;;;83.07;;
43988;SDS011;54163;51.386;7.178;2022-07-17T04:39:32;383.70;;;66.93;;
43988;SDS011;54163;51.386;7.178;2022-07-17T04:41:59;517.73;;;91.50;;
43988;SDS011;54163;51.386;7.178;2022-07-17T04:44:25;477.93;;;80.67;;
43988;SDS011;54163;51.386;7.178;2022-07-17T04:46:54;474.33;;;80.27;;
43988;SDS011;54163;51.386;7.178;2022-07-17T04:49:22;543.17;;;98.87;;
43988;SDS011;54163;51.386;7.178;2022-07-17T04:51:49;543.63;;;97.13;;
43988;SDS011;54163;51.386;7.178;2022-07-17T04:54:16;383.27;;;67.50;;
43988;SDS011;54163;51.386;7.178;2022-07-17T04:56:43;474.80;;;82.93;;
43988;SDS011;54163;51.386;7.178;2022-07-17T04:59:10;495.30;;;84.23;;
43988;SDS011;54163;51.386;7.178;2022-07-17T05:01:37;482.10;;;88.60;;
43988;SDS011;54163;51.386;7.178;2022-07-17T05:04:05;478.93;;;81.73;;
43988;SDS011;54163;51.386;7.178;2022-07-17T05:06:32;481.40;;;86.50;;
43988;SDS011;54163;51.386;7.178;2022-07-17T05:08:59;544.60;;;96.23;;
43988;SDS011;54163;51.386;7.178;2022-07-17T05:11:26;497.57;;;84.73;;
43988;SDS011;54163;51.386;7.178;2022-07-17T05:13:53;483.37;;;83.10;;
43988;SDS011;54163;51.386;7.178;2022-07-17T05:16:20;497.50;;;87.67;;
43988;SDS011;54163;51.386;7.178;2022-07-17T05:18:47;458.30;;;84.13;;
43988;SDS011;54163;51.386;7.178;2022-07-17T05:21:16;481.23;;;82.83;;
43988;SDS011;54163;51.386;7.178;2022-07-17T05:23:43;552.67;;;99.67;;
43988;SDS011;54163;51.386;7.178;2022-07-17T05:26:10;484.23;;;84.80;;
43988;SDS011;54163;51.386;7.178;2022-07-17T05:28:38;501.07;;;88.77;;
43988;SDS011;54163;51.386;7.178;2022-07-17T05:31:05;484.53;;;82.10;;
43988;SDS011;54163;51.386;7.178;2022-07-17T05:33:32;484.23;;;84.00;;
43988;SDS011;54163;51.386;7.178;2022-07-17T05:35:59;551.67;;;100.43;;
43988;SDS011;54163;51.386;7.178;2022-07-17T05:38:28;551.70;;;98.80;;
43988;SDS011;54163;51.386;7.178;2022-07-17T05:40:55;480.10;;;81.97;;
43988;SDS011;54163;51.386;7.178;2022-07-17T05:43:22;486.80;;;82.90;;
43988;SDS011;54163;51.386;7.178;2022-07-17T05:45:49;554.57;;;97.93;;
43988;SDS011;54163;51.386;7.178;2022-07-17T05:48:19;484.70;;;84.90;;
43988;SDS011;54163;51.386;7.178;2022-07-17T05:50:46;490.17;;;85.30;;
43988;SDS011;54163;51.386;7.178;2022-07-17T05:53:13;489.33;;;85.03;;
43988;SDS011;54163;51.386;7.178;2022-07-17T05:55:42;490.87;;;87.53;;
43988;SDS011;54163;51.386;7.178;2022-07-17T05:58:09;480.87;;;82.63;;
43988;SDS011;54163;51.386;7.178;2022-07-17T06:00:37;487.93;;;85.07;;
43988;SDS011;54163;51.386;7.178;2022-07-17T06:03:04;480.03;;;81.93;;
43988;SDS011;54163;51.386;7.178;2022-07-17T06:05:31;486.97;;;86.23;;
43988;SDS011;54163;51.386;7.178;2022-07-17T06:07:59;487.37;;;86.30;;
43988;SDS011;54163;51.386;7.178;2022-07-17T06:10:26;493.27;;;85.73;;
43988;SDS011;54163;51.386;7.178;2022-07-17T06:12:55;492.40;;;86.57;;
43988;SDS011;54163;51.386;7.178;2022-07-17T06:15:23;492.37;;;85.77;;
43988;SDS011;54163;51.386;7.178;2022-07-17T06:17:50;486.27;;;83.57;;
43988;SDS011;54163;51.386;7.178;2022-07-17T06:20:17;498.93;;;90.93;;
43988;SDS011;54163;51.386;7.178;2022-07-17T06:22:45;492.97;;;84.70;;
43988;SDS011;54163;51.386;7.178;2022-07-17T06:25:12;487.93;;;86.83;;
43988;SDS011;54163;51.386;7.178;2022-07-17T06:27:40;487.07;;;85.30;;
43988;SDS011;54163;51.386;7.178;2022-07-17T06:30:09;568.33;;;103.10;;
43988;SDS011;54163;51.386;7.178;2022-07-17T06:32:38;561.10;;;99.83;;
43988;SDS011;54163;51.386;7.178;2022-07-17T06:35:06;497.70;;;89.73;;
43988;SDS011;54163;51.386;7.178;2022-07-17T06:37:34;576.37;;;107.00;;
43988;SDS011;54163;51.386;7.178;2022-07-17T06:40:02;491.13;;;83.00;;
43988;SDS011;54163;51.386;7.178;2022-07-17T06:42:30;498.63;;;88.00;;
43988;SDS011;54163;51.386;7.178;2022-07-17T06:44:57;500.43;;;88.43;;
43988;SDS011;54163;51.386;7.178;2022-07-17T06:47:25;575.10;;;100.73;;
43988;SDS011;54163;51.386;7.178;2022-07-17T06:49:53;575.60;;;105.87;;
43988;SDS011;54163;51.386;7.178;2022-07-17T06:52:20;503.93;;;94.13;;
43988;SDS011;54163;51.386;7.178;2022-07-17T06:54:47;505.87;;;89.47;;
43988;SDS011;54163;51.386;7.178;2022-07-17T06:57:15;504.53;;;92.57;;
43988;SDS011;54163;51.386;7.178;2022-07-17T06:59:42;583.97;;;101.73;;
43988;SDS011;54163;51.386;7.178;2022-07-17T07:02:08;607.97;;;113.63;;
43988;SDS011;54163;51.386;7.178;2022-07-17T07:04:37;502.33;;;89.37;;
43988;SDS011;54163;51.386;7.178;2022-07-17T07:07:04;574.30;;;105.23;;
43988;SDS011;54163;51.386;7.178;2022-07-17T07:09:31;500.00;;;86.33;;
43988;SDS011;54163;51.386;7.178;2022-07-17T07:11:58;501.83;;;87.87;;
43988;SDS011;54163;51.386;7.178;2022-07-17T07:14:25;576.97;;;107.30;;
43988;SDS011;54163;51.386;7.178;2022-07-17T07:16:51;589.47;;;111.30;;
43988;SDS011;54163;51.386;7.178;2022-07-17T07:19:19;511.93;;;92.80;;
43988;SDS011;54163;51.386;7.178;2022-07-17T07:21:47;513.90;;;96.33;;
43988;SDS011;54163;51.386;7.178;2022-07-17T07:24:14;546.83;;;98.87;;
43988;SDS011;54163;51.386;7.178;2022-07-17T07:26:41;512.07;;;92.37;;
43988;SDS011;54163;51.386;7.178;2022-07-17T07:29:08;589.03;;;108.77;;
43988;SDS011;54163;51.386;7.178;2022-07-17T07:31:35;514.67;;;94.73;;
43988;SDS011;54163;51.386;7.178;2022-07-17T07:34:02;506.37;;;91.23;;
43988;SDS011;54163;51.386;7.178;2022-07-17T07:36:29;588.33;;;110.17;;
43988;SDS011;54163;51.386;7.178;2022-07-17T07:38:58;592.03;;;111.20;;
43988;SDS011;54163;51.386;7.178;2022-07-17T07:41:24;619.13;;;114.93;;
43988;SDS011;54163;51.386;7.178;2022-07-17T07:43:52;516.57;;;95.90;;
43988;SDS011;54163;51.386;7.178;2022-07-17T07:46:19;594.27;;;114.93;;
43988;SDS011;54163;51.386;7.178;2022-07-17T07:48:46;525.17;;;98.03;;
43988;SDS011;54163;51.386;7.178;2022-07-17T07:51:13;628.20;;;118.53;;
43988;SDS011;54163;51.386;7.178;2022-07-17T07:53:40;536.80;;;98.50;;
43988;SDS011;54163;51.386;7.178;2022-07-17T07:56:09;590.13;;;109.10;;
43988;SDS011;54163;51.386;7.178;2022-07-17T07:58:36;520.13;;;96.33;;
43988;SDS011;54163;51.386;7.178;2022-07-17T08:01:03;510.87;;;92.90;;
43988;SDS011;54163;51.386;7.178;2022-07-17T08:03:31;610.50;;;113.67;;
43988;SDS011;54163;51.386;7.178;2022-07-17T08:05:58;619.10;;;119.57;;
43988;SDS011;54163;51.386;7.178;2022-07-17T08:08:25;514.17;;;97.97;;
43988;SDS011;54163;51.386;7.178;2022-07-17T08:10:51;553.10;;;103.13;;
43988;SDS011;54163;51.386;7.178;2022-07-17T08:13:21;512.23;;;93.87;;
43988;SDS011;54163;51.386;7.178;2022-07-17T08:15:48;606.10;;;114.00;;
43988;SDS011;54163;51.386;7.178;2022-07-17T08:18:15;621.73;;;120.00;;
43988;SDS011;54163;51.386;7.178;2022-07-17T08:20:42;514.57;;;98.73;;
43988;SDS011;54163;51.386;7.178;2022-07-17T08:23:09;606.97;;;116.80;;
43988;SDS011;54163;51.386;7.178;2022-07-17T08:25:36;619.90;;;123.03;;
43988;SDS011;54163;51.386;7.178;2022-07-17T08:28:04;621.03;;;125.47;;
43988;SDS011;54163;51.386;7.178;2022-07-17T08:30:33;518.80;;;101.90;;
43988;SDS011;54163;51.386;7.178;2022-07-17T08:33:02;521.23;;;100.07;;
43988;SDS011;54163;51.386;7.178;2022-07-17T08:35:29;602.20;;;116.97;;
43988;SDS011;54163;51.386;7.178;2022-07-17T08:37:57;630.17;;;131.47;;
43988;SDS011;54163;51.386;7.178;2022-07-17T08:40:26;631.77;;;129.57;;
43988;SDS011;54163;51.386;7.178;2022-07-17T08:42:55;630.93;;;132.37;;
43988;SDS011;54163;51.386;7.178;2022-07-17T08:45:24;622.33;;;125.77;;
43988;SDS011;54163;51.386;7.178;2022-07-17T08:47:53;647.53;;;134.33;;
43988;SDS011;54163;51.386;7.178;2022-07-17T08:50:23;534.83;;;113.20;;
43988;SDS011;54163;51.386;7.178;2022-07-17T08:52:51;563.03;;;113.03;;
43988;SDS011;54163;51.386;7.178;2022-07-17T08:55:19;629.27;;;130.73;;
43988;SDS011;54163;51.386;7.178;2022-07-17T08:57:46;523.80;;;102.57;;
43988;SDS011;54163;51.386;7.178;2022-07-17T09:00:14;618.73;;;130.03;;
43988;SDS011;54163;51.386;7.178;2022-07-17T09:02:55;625.33;;;124.93;;
43988;SDS011;54163;51.386;7.178;2022-07-17T09:05:24;624.67;;;130.77;;
43988;SDS011;54163;51.386;7.178;2022-07-17T09:07:53;559.43;;;111.30;;
43988;SDS011;54163;51.386;7.178;2022-07-17T09:10:29;622.20;;;124.67;;
43988;SDS011;54163;51.386;7.178;2022-07-17T09:12:57;561.10;;;112.57;;
43988;SDS011;54163;51.386;7.178;2022-07-17T09:15:26;530.50;;;112.07;;
43988;SDS011;54163;51.386;7.178;2022-07-17T09:17:55;623.00;;;127.23;;
43988;SDS011;54163;51.386;7.178;2022-07-17T09:20:23;530.10;;;109.10;;
43988;SDS011;54163;51.386;7.178;2022-07-17T09:22:56;647.87;;;138.80;;
43988;SDS011;54163;51.386;7.178;2022-07-17T09:25:31;562.83;;;116.30;;
43988;SDS011;54163;51.386;7.178;2022-07-17T09:28:00;529.20;;;112.37;;
43988;SDS011;54163;51.386;7.178;2022-07-17T09:30:29;557.17;;;114.93;;
43988;SDS011;54163;51.386;7.178;2022-07-17T09:32:59;530.00;;;110.53;;
43988;SDS011;54163;51.386;7.178;2022-07-17T09:35:26;697.30;;;153.83;;
43988;SDS011;54163;51.386;7.178;2022-07-17T09:37:53;626.03;;;127.93;;
43988;SDS011;54163;51.386;7.178;2022-07-17T09:40:21;529.93;;;108.53;;
43988;SDS011;54163;51.386;7.178;2022-07-17T09:43:06;546.90;;;113.73;;
43988;SDS011;54163;51.386;7.178;2022-07-17T09:45:33;531.23;;;109.93;;
43988;SDS011;54163;51.386;7.178;2022-07-17T09:48:03;642.57;;;134.37;;
43988;SDS011;54163;51.386;7.178;2022-07-17T09:50:31;520.93;;;121.03;;
43988;SDS011;54163;51.386;7.178;2022-07-17T09:52:58;720.90;;;163.10;;
43988;SDS011;54163;51.386;7.178;2022-07-17T09:55:27;636.70;;;141.87;;
43988;SDS011;54163;51.386;7.178;2022-07-17T09:57:56;667.83;;;148.00;;
43988;SDS011;54163;51.386;7.178;2022-07-17T10:00:25;631.93;;;135.90;;
43988;SDS011;54163;51.386;7.178;2022-07-17T10:02:53;558.70;;;118.67;;
43988;SDS011;54163;51.386;7.178;2022-07-17T10:05:22;660.87;;;154.07;;
43988;SDS011;54163;51.386;7.178;2022-07-17T10:07:48;554.70;;;114.20;;
43988;SDS011;54163;51.386;7.178;2022-07-17T10:10:16;619.87;;;141.53;;
43988;SDS011;54163;51.386;7.178;2022-07-17T10:12:45;592.80;;;119.40;;
43988;SDS011;54163;51.386;7.178;2022-07-17T10:15:14;682.40;;;161.53;;
43988;SDS011;54163;51.386;7.178;2022-07-17T10:17:42;703.97;;;165.30;;
43988;SDS011;54163;51.386;7.178;2022-07-17T10:20:09;644.13;;;140.70;;
43988;SDS011;54163;51.386;7.178;2022-07-17T10:22:41;636.97;;;146.03;;
43988;SDS011;54163;51.386;7.178;2022-07-17T10:25:12;575.37;;;129.07;;
43988;SDS011;54163;51.386;7.178;2022-07-17T10:27:48;641.73;;;150.93;;
43988;SDS011;54163;51.386;7.178;2022-07-17T10:30:23;721.33;;;182.33;;
43988;SDS011;54163;51.386;7.178;2022-07-17T10:32:52;728.20;;;174.07;;
43988;SDS011;54163;51.386;7.178;2022-07-17T10:35:21;537.67;;;119.50;;
43988;SDS011;54163;51.386;7.178;2022-07-17T10:37:50;720.80;;;179.37;;
43988;SDS011;54163;51.386;7.178;2022-07-17T10:40:18;725.03;;;185.03;;
43988;SDS011;54163;51.386;7.178;2022-07-17T10:42:50;735.73;;;180.73;;
43988;SDS011;54163;51.386;7.178;2022-07-17T10:45:19;635.73;;;152.23;;
43988;SDS011;54163;51.386;7.178;2022-07-17T10:47:50;680.53;;;157.00;;
43988;SDS011;54163;51.386;7.178;2022-07-17T10:50:22;543.73;;;130.43;;
43988;SDS011;54163;51.386;7.178;2022-07-17T10:53:04;719.80;;;172.47;;
43988;SDS011;54163;51.386;7.178;2022-07-17T10:55:33;655.03;;;157.10;;
43988;SDS011;54163;51.386;7.178;2022-07-17T10:58:00;651.83;;;146.77;;
43988;SDS011;54163;51.386;7.178;2022-07-17T11:00:27;664.27;;;162.13;;
43988;SDS011;54163;51.386;7.178;2022-07-17T11:02:55;575.13;;;134.40;;
43988;SDS011;54163;51.386;7.178;2022-07-17T11:05:22;598.80;;;142.07;;
43988;SDS011;54163;51.386;7.178;2022-07-17T11:07:54;682.07;;;157.90;;
43988;SDS011;54163;51.386;7.178;2022-07-17T11:10:26;534.00;;;122.53;;
43988;SDS011;54163;51.386;7.178;2022-07-17T11:12:54;643.20;;;151.57;;
43988;SDS011;54163;51.386;7.178;2022-07-17T11:15:37;728.13;;;176.50;;
43988;SDS011;54163;51.386;7.178;2022-07-17T11:18:09;704.77;;;171.77;;
43988;SDS011;54163;51.386;7.178;2022-07-17T11:20:45;726.77;;;193.10;;
43988;SDS011;54163;51.386;7.178;2022-07-17T11:23:13;744.73;;;193.93;;
43988;SDS011;54163;51.386;7.178;2022-07-17T11:25:51;720.87;;;184.07;;
43988;SDS011;54163;51.386;7.178;2022-07-17T11:28:27;732.77;;;195.90;;
43988;SDS011;54163;51.386;7.178;2022-07-17T11:30:58;704.80;;;198.07;;
43988;SDS011;54163;51.386;7.178;2022-07-17T11:33:25;734.97;;;192.83;;
43988;SDS011;54163;51.386;7.178;2022-07-17T11:35:53;725.23;;;192.97;;
43988;SDS011;54163;51.386;7.178;2022-07-17T11:38:25;594.60;;;153.17;;
43988;SDS011;54163;51.386;7.178;2022-07-17T11:40:55;728.30;;;203.53;;
43988;SDS011;54163;51.386;7.178;2022-07-17T11:43:23;657.27;;;168.40;;
43988;SDS011;54163;51.386;7.178;2022-07-17T11:45:49;648.60;;;166.27;;
43988;SDS011;54163;51.386;7.178;2022-07-17T11:48:17;738.20;;;201.13;;
43988;SDS011;54163;51.386;7.178;2022-07-17T11:50:54;737.00;;;211.40;;
43988;SDS011;54163;51.386;7.178;2022-07-17T11:53:32;731.23;;;201.87;;
43988;SDS011;54163;51.386;7.178;2022-07-17T11:56:02;739.40;;;229.83;;
43988;SDS011;54163;51.386;7.178;2022-07-17T11:58:40;611.10;;;149.90;;
43988;SDS011;54163;51.386;7.178;2022-07-17T12:01:08;742.27;;;215.77;;
43988;SDS011;54163;51.386;7.178;2022-07-17T12:03:35;669.43;;;186.37;;
43988;SDS011;54163;51.386;7.178;2022-07-17T12:06:02;607.77;;;175.90;;
43988;SDS011;54163;51.386;7.178;2022-07-17T12:08:29;743.17;;;201.53;;
43988;SDS011;54163;51.386;7.178;2022-07-17T12:11:02;793.67;;;284.07;;
43988;SDS011;54163;51.386;7.178;2022-07-17T12:13:37;744.00;;;223.63;;
43988;SDS011;54163;51.386;7.178;2022-07-17T12:16:17;760.13;;;224.23;;
43988;SDS011;54163;51.386;7.178;2022-07-17T12:18:54;743.93;;;229.80;;
43988;SDS011;54163;51.386;7.178;2022-07-17T12:21:22;752.30;;;229.87;;
43988;SDS011;54163;51.386;7.178;2022-07-17T12:23:56;745.50;;;235.30;;
43988;SDS011;54163;51.386;7.178;2022-07-17T12:26:26;756.73;;;223.43;;
43988;SDS011;54163;51.386;7.178;2022-07-17T12:28:54;748.27;;;229.60;;
43988;SDS011;54163;51.386;7.178;2022-07-17T12:31:21;756.33;;;232.50;;
43988;SDS011;54163;51.386;7.178;2022-07-17T12:33:50;753.03;;;238.30;;
43988;SDS011;54163;51.386;7.178;2022-07-17T12:36:18;758.73;;;253.47;;
43988;SDS011;54163;51.386;7.178;2022-07-17T12:38:45;758.90;;;253.00;;
43988;SDS011;54163;51.386;7.178;2022-07-17T12:41:13;749.93;;;253.80;;
43988;SDS011;54163;51.386;7.178;2022-07-17T12:43:41;760.77;;;266.10;;
43988;SDS011;54163;51.386;7.178;2022-07-17T12:46:09;766.60;;;255.90;;
43988;SDS011;54163;51.386;7.178;2022-07-17T12:48:36;768.20;;;287.47;;
43988;SDS011;54163;51.386;7.178;2022-07-17T12:51:06;776.00;;;310.83;;
43988;SDS011;54163;51.386;7.178;2022-07-17T12:53:34;763.20;;;290.03;;
43988;SDS011;54163;51.386;7.178;2022-07-17T12:56:02;775.83;;;311.20;;
43988;SDS011;54163;51.386;7.178;2022-07-17T12:58:30;776.83;;;292.13;;
43988;SDS011;54163;51.386;7.178;2022-07-17T13:00:59;800.43;;;351.20;;
43988;SDS011;54163;51.386;7.178;2022-07-17T13:03:27;781.23;;;332.43;;
43988;SDS011;54163;51.386;7.178;2022-07-17T13:05:54;744.10;;;280.40;;
43988;SDS011;54163;51.386;7.178;2022-07-17T13:08:21;783.83;;;321.60;;
43988;SDS011;54163;51.386;7.178;2022-07-17T13:10:48;781.97;;;369.17;;
43988;SDS011;54163;51.386;7.178;2022-07-17T13:13:15;773.20;;;352.83;;
43988;SDS011;54163;51.386;7.178;2022-07-17T13:15:42;768.77;;;347.33;;
43988;SDS011;54163;51.386;7.178;2022-07-17T13:18:11;800.47;;;394.60;;
43988;SDS011;54163;51.386;7.178;2022-07-17T13:20:39;802.27;;;364.33;;
43988;SDS011;54163;51.386;7.178;2022-07-17T13:23:06;765.20;;;351.50;;
43988;SDS011;54163;51.386;7.178;2022-07-17T13:25:34;789.80;;;408.13;;
43988;SDS011;54163;51.386;7.178;2022-07-17T13:28:01;794.90;;;402.70;;
43988;SDS011;54163;51.386;7.178;2022-07-17T13:30:29;802.30;;;423.00;;
43988;SDS011;54163;51.386;7.178;2022-07-17T13:32:57;761.87;;;333.90;;
43988;SDS011;54163;51.386;7.178;2022-07-17T13:35:27;813.67;;;417.17;;
43988;SDS011;54163;51.386;7.178;2022-07-17T13:37:54;825.13;;;485.30;;
43988;SDS011;54163;51.386;7.178;2022-07-17T13:40:22;814.13;;;474.47;;
43988;SDS011;54163;51.386;7.178;2022-07-17T13:42:49;848.00;;;525.47;;
43988;SDS011;54163;51.386;7.178;2022-07-17T13:45:16;832.50;;;484.13;;
43988;SDS011;54163;51.386;7.178;2022-07-17T13:47:43;827.40;;;497.60;;
43988;SDS011;54163;51.386;7.178;2022-07-17T13:50:10;829.13;;;503.83;;
43988;SDS011;54163;51.386;7.178;2022-07-17T13:52:39;815.00;;;439.47;;
43988;SDS011;54163;51.386;7.178;2022-07-17T13:55:06;774.33;;;378.07;;
43988;SDS011;54163;51.386;7.178;2022-07-17T13:57:34;853.53;;;553.43;;
43988;SDS011;54163;51.386;7.178;2022-07-17T14:00:02;868.00;;;603.87;;
43988;SDS011;54163;51.386;7.178;2022-07-17T14:02:35;847.47;;;513.27;;
43988;SDS011;54163;51.386;7.178;2022-07-17T14:05:04;867.43;;;584.40;;
43988;SDS011;54163;51.386;7.178;2022-07-17T14:07:32;844.30;;;515.07;;